sensor_id;sensor_type;location;lat;lon;timestamp;pressure;altitude;pressure_sealevel;temperature;humidity
67738;BME280;54534;43.612;1.572;2022-08-11T00:02:24;98908.78;;;27.32;43.78
67738;BME280;54534;43.612;1.572;2022-08-11T00:04:50;98902.56;;;27.32;43.76
67738;BME280;54534;43.612;1.572;2022-08-11T00:07:16;98907.97;;;27.32;43.72
67738;BME280;54534;43.612;1.572;2022-08-11T00:09:43;98905.25;;;27.32;43.66
67738;BME280;54534;43.612;1.572;2022-08-11T00:12:13;98908.78;;;27.32;43.74
67738;BME280;54534;43.612;1.572;2022-08-11T00:14:40;98899.22;;;27.30;43.66
67738;BME280;54534;43.612;1.572;2022-08-11T00:17:08;98896.31;;;27.31;43.66
67738;BME280;54534;43.612;1.572;2022-08-11T00:19:39;98901.72;;;27.31;43.67
67738;BME280;54534;43.612;1.572;2022-08-11T00:22:07;98895.50;;;27.31;43.52
67738;BME280;54534;43.612;1.572;2022-08-11T00:24:36;98903.59;;;27.31;43.81
67738;BME280;54534;43.612;1.572;2022-08-11T00:27:02;98904.41;;;27.31;43.55
67738;BME280;54534;43.612;1.572;2022-08-11T00:29:28;98903.59;;;27.31;43.47
67738;BME280;54534;43.612;1.572;2022-08-11T00:31:56;98912.72;;;27.30;43.58
67738;BME280;54534;43.612;1.572;2022-08-11T00:34:27;98902.75;;;27.30;43.55
67738;BME280;54534;43.612;1.572;2022-08-11T00:36:57;98909.00;;;27.31;43.53
67738;BME280;54534;43.612;1.572;2022-08-11T00:39:25;98918.94;;;27.30;43.80
67738;BME280;54534;43.612;1.572;2022-08-11T01:20:02;98925.94;;;27.25;43.99
67738;BME280;54534;43.612;1.572;2022-08-11T01:45:39;98938.78;;;27.23;44.06
67738;BME280;54534;43.612;1.572;2022-08-11T01:54:20;98944.19;;;27.23;43.94
67738;BME280;54534;43.612;1.572;2022-08-11T01:57:01;98939.63;;;27.23;43.96
67738;BME280;54534;43.612;1.572;2022-08-11T01:59:36;98946.88;;;27.23;44.10
67738;BME280;54534;43.612;1.572;2022-08-11T02:25:52;98964.09;;;27.21;44.58
67738;BME280;54534;43.612;1.572;2022-08-11T02:37:24;98961.59;;;27.20;44.48
67738;BME280;54534;43.612;1.572;2022-08-11T02:50:51;98954.50;;;27.19;44.70
67738;BME280;54534;43.612;1.572;2022-08-11T03:01:47;98966.78;;;27.21;45.26
67738;BME280;54534;43.612;1.572;2022-08-11T03:04:23;98968.66;;;27.21;45.45
67738;BME280;54534;43.612;1.572;2022-08-11T03:14:55;98964.09;;;27.21;45.57
67738;BME280;54534;43.612;1.572;2022-08-11T03:20:33;98957.03;;;27.20;45.35
67738;BME280;54534;43.612;1.572;2022-08-11T03:25:56;98958.69;;;27.21;45.67
67738;BME280;54534;43.612;1.572;2022-08-11T03:33:46;98971.19;;;27.23;45.87
67738;BME280;54534;43.612;1.572;2022-08-11T03:41:31;98973.88;;;27.23;45.95
67738;BME280;54534;43.612;1.572;2022-08-11T03:44:31;98986.53;;;27.22;46.43
67738;BME280;54534;43.612;1.572;2022-08-11T03:49:54;98987.38;;;27.23;46.27
67738;BME280;54534;43.612;1.572;2022-08-11T03:52:48;98989.22;;;27.22;46.21
67738;BME280;54534;43.612;1.572;2022-08-11T04:37:30;99021.81;;;27.20;49.17
67738;BME280;54534;43.612;1.572;2022-08-11T04:54:53;99022.81;;;27.19;49.28
67738;BME280;54534;43.612;1.572;2022-08-11T04:58:08;99026.53;;;27.18;49.40
67738;BME280;54534;43.612;1.572;2022-08-11T05:01:14;99033.63;;;27.19;49.49
67738;BME280;54534;43.612;1.572;2022-08-11T05:12:54;99031.97;;;27.10;51.38
67738;BME280;54534;43.612;1.572;2022-08-11T05:15:40;99033.59;;;27.04;51.96
67738;BME280;54534;43.612;1.572;2022-08-11T05:18:28;99034.31;;;26.98;52.34
67738;BME280;54534;43.612;1.572;2022-08-11T05:21:13;99027.78;;;26.92;52.78
67738;BME280;54534;43.612;1.572;2022-08-11T05:24:17;99029.19;;;26.88;52.70
67738;BME280;54534;43.612;1.572;2022-08-11T05:27:04;99028.91;;;26.83;53.07
67738;BME280;54534;43.612;1.572;2022-08-11T05:30:06;99030.09;;;26.80;53.23
67738;BME280;54534;43.612;1.572;2022-08-11T05:33:02;99041.41;;;26.75;53.58
67738;BME280;54534;43.612;1.572;2022-08-11T05:35:49;99044.50;;;26.72;53.92
67738;BME280;54534;43.612;1.572;2022-08-11T05:38:25;99044.84;;;26.69;54.28
67738;BME280;54534;43.612;1.572;2022-08-11T05:41:11;99047.91;;;26.66;54.07
67738;BME280;54534;43.612;1.572;2022-08-11T05:43:58;99043.53;;;26.65;54.33
67738;BME280;54534;43.612;1.572;2022-08-11T05:46:43;99047.63;;;26.61;54.31
67738;BME280;54534;43.612;1.572;2022-08-11T05:49:31;99053.00;;;26.61;54.78
67738;BME280;54534;43.612;1.572;2022-08-11T05:52:26;99052.34;;;26.59;54.53
67738;BME280;54534;43.612;1.572;2022-08-11T05:55:12;99047.13;;;26.57;54.83
67738;BME280;54534;43.612;1.572;2022-08-11T05:58:01;99046.31;;;26.57;54.97
67738;BME280;54534;43.612;1.572;2022-08-11T06:00:27;99044.63;;;26.56;54.89
67738;BME280;54534;43.612;1.572;2022-08-11T06:02:55;99038.38;;;26.55;54.82
67738;BME280;54534;43.612;1.572;2022-08-11T06:05:22;99032.84;;;26.57;54.87
67738;BME280;54534;43.612;1.572;2022-08-11T06:07:48;99038.22;;;26.57;55.11
67738;BME280;54534;43.612;1.572;2022-08-11T06:10:33;99037.84;;;26.60;54.93
67738;BME280;54534;43.612;1.572;2022-08-11T06:13:00;99034.78;;;26.63;55.11
67738;BME280;54534;43.612;1.572;2022-08-11T06:15:27;99025.84;;;26.62;55.00
67738;BME280;54534;43.612;1.572;2022-08-11T06:17:54;99034.78;;;26.63;55.35
67738;BME280;54534;43.612;1.572;2022-08-11T06:20:21;99040.38;;;26.61;55.49
67738;BME280;54534;43.612;1.572;2022-08-11T06:23:01;99041.88;;;26.64;55.08
67738;BME280;54534;43.612;1.572;2022-08-11T06:25:32;99037.13;;;26.66;55.13
67738;BME280;54534;43.612;1.572;2022-08-11T06:28:01;99028.84;;;26.68;55.01
67738;BME280;54534;43.612;1.572;2022-08-11T06:30:39;99032.38;;;26.68;55.36
67738;BME280;54534;43.612;1.572;2022-08-11T06:38:44;99018.53;;;26.71;55.25
67738;BME280;54534;43.612;1.572;2022-08-11T06:41:23;99022.91;;;26.72;55.19
67738;BME280;54534;43.612;1.572;2022-08-11T06:46:41;99027.94;;;26.75;55.27
67738;BME280;54534;43.612;1.572;2022-08-11T06:49:10;99030.25;;;26.79;54.85
67738;BME280;54534;43.612;1.572;2022-08-11T06:52:00;99028.25;;;26.81;54.74
67738;BME280;54534;43.612;1.572;2022-08-11T06:54:36;99037.63;;;26.85;54.63
67738;BME280;54534;43.612;1.572;2022-08-11T06:57:05;99036.78;;;26.84;54.30
67738;BME280;54534;43.612;1.572;2022-08-11T06:59:50;99036.44;;;26.87;54.21
67738;BME280;54534;43.612;1.572;2022-08-11T07:02:43;99027.31;;;26.88;53.98
67738;BME280;54534;43.612;1.572;2022-08-11T07:05:19;99035.03;;;26.92;54.02
67738;BME280;54534;43.612;1.572;2022-08-11T07:13:44;99037.19;;;26.96;53.31
67738;BME280;54534;43.612;1.572;2022-08-11T07:16:30;99032.44;;;26.98;53.19
67738;BME280;54534;43.612;1.572;2022-08-11T07:19:05;99027.72;;;27.01;53.15
67738;BME280;54534;43.612;1.572;2022-08-11T07:21:50;99028.53;;;27.01;52.91
67738;BME280;54534;43.612;1.572;2022-08-11T07:24:40;99028.34;;;27.03;52.89
67738;BME280;54534;43.612;1.572;2022-08-11T07:27:29;99030.03;;;27.04;52.73
67738;BME280;54534;43.612;1.572;2022-08-11T07:30:15;99023.81;;;27.03;52.55
67738;BME280;54534;43.612;1.572;2022-08-11T07:32:49;99028.00;;;27.06;52.34
67738;BME280;54534;43.612;1.572;2022-08-11T07:35:19;99020.75;;;27.06;52.66
67738;BME280;54534;43.612;1.572;2022-08-11T07:37:47;99026.78;;;27.08;52.45
67738;BME280;54534;43.612;1.572;2022-08-11T07:40:20;99026.78;;;27.08;52.34
67738;BME280;54534;43.612;1.572;2022-08-11T07:42:47;99023.88;;;27.10;52.11
67738;BME280;54534;43.612;1.572;2022-08-11T07:45:13;99033.66;;;27.11;52.43
67738;BME280;54534;43.612;1.572;2022-08-11T07:47:59;99034.34;;;27.13;52.10
67738;BME280;54534;43.612;1.572;2022-08-11T07:50:43;99031.66;;;27.13;52.25
67738;BME280;54534;43.612;1.572;2022-08-11T07:53:29;99019.84;;;27.14;52.37
67738;BME280;54534;43.612;1.572;2022-08-11T07:55:56;99024.19;;;27.15;52.26
67738;BME280;54534;43.612;1.572;2022-08-11T07:58:22;99025.03;;;27.16;52.18
67738;BME280;54534;43.612;1.572;2022-08-11T08:01:10;99024.88;;;27.17;51.98
67738;BME280;54534;43.612;1.572;2022-08-11T08:03:55;99030.28;;;27.17;51.93
67738;BME280;54534;43.612;1.572;2022-08-11T08:06:41;99036.47;;;27.18;51.94
67738;BME280;54534;43.612;1.572;2022-08-11T08:09:25;99030.28;;;27.17;51.88
67738;BME280;54534;43.612;1.572;2022-08-11T08:12:10;99027.22;;;27.20;51.69
67738;BME280;54534;43.612;1.572;2022-08-11T08:14:55;99024.50;;;27.20;51.90
67738;BME280;54534;43.612;1.572;2022-08-11T08:17:41;99018.28;;;27.20;51.60
67738;BME280;54534;43.612;1.572;2022-08-11T08:20:19;99031.56;;;27.21;51.55
67738;BME280;54534;43.612;1.572;2022-08-11T08:22:53;99020.78;;;27.21;51.80
67738;BME280;54534;43.612;1.572;2022-08-11T08:25:32;99022.47;;;27.23;51.52
67738;BME280;54534;43.612;1.572;2022-08-11T08:28:00;99018.72;;;27.24;51.63
67738;BME280;54534;43.612;1.572;2022-08-11T08:30:28;99022.91;;;27.26;51.56
67738;BME280;54534;43.612;1.572;2022-08-11T08:33:14;99021.25;;;27.25;51.67
67738;BME280;54534;43.612;1.572;2022-08-11T08:35:42;99029.16;;;27.27;51.39
67738;BME280;54534;43.612;1.572;2022-08-11T08:38:10;99028.31;;;27.26;51.29
67738;BME280;54534;43.612;1.572;2022-08-11T08:40:38;99026.28;;;27.28;51.31
67738;BME280;54534;43.612;1.572;2022-08-11T08:43:10;99015.47;;;27.28;51.20
67738;BME280;54534;43.612;1.572;2022-08-11T08:45:40;99011.94;;;27.28;51.09
67738;BME280;54534;43.612;1.572;2022-08-11T08:48:14;99014.28;;;27.31;51.25
67738;BME280;54534;43.612;1.572;2022-08-11T08:50:47;99026.72;;;27.32;51.00
67738;BME280;54534;43.612;1.572;2022-08-11T08:53:34;99026.72;;;27.32;50.98
67738;BME280;54534;43.612;1.572;2022-08-11T08:56:03;99033.97;;;27.31;51.06
67738;BME280;54534;43.612;1.572;2022-08-11T08:58:33;99032.97;;;27.32;50.95
67738;BME280;54534;43.612;1.572;2022-08-11T09:01:00;99033.81;;;27.33;50.85
67738;BME280;54534;43.612;1.572;2022-08-11T09:03:27;99034.66;;;27.34;50.89
67738;BME280;54534;43.612;1.572;2022-08-11T09:05:54;99028.22;;;27.35;50.78
67738;BME280;54534;43.612;1.572;2022-08-11T09:08:21;99029.06;;;27.35;50.84
67738;BME280;54534;43.612;1.572;2022-08-11T09:10:49;99029.91;;;27.36;50.99
67738;BME280;54534;43.612;1.572;2022-08-11T09:13:35;99035.09;;;27.37;50.62
67738;BME280;54534;43.612;1.572;2022-08-11T09:16:02;99027.00;;;27.37;50.67
67738;BME280;54534;43.612;1.572;2022-08-11T09:18:30;99034.09;;;27.38;50.67
67738;BME280;54534;43.612;1.572;2022-08-11T09:20:56;99027.84;;;27.38;50.67
67738;BME280;54534;43.612;1.572;2022-08-11T09:23:22;99032.22;;;27.39;50.79
67738;BME280;54534;43.612;1.572;2022-08-11T09:26:06;99028.50;;;27.40;50.61
67738;BME280;54534;43.612;1.572;2022-08-11T09:28:51;99032.03;;;27.40;50.54
67738;BME280;54534;43.612;1.572;2022-08-11T09:31:17;99028.50;;;27.40;50.65
67738;BME280;54534;43.612;1.572;2022-08-11T09:33:45;99032.03;;;27.40;50.63
67738;BME280;54534;43.612;1.572;2022-08-11T09:36:12;99022.94;;;27.41;50.60
67738;BME280;54534;43.612;1.572;2022-08-11T09:38:57;99019.19;;;27.42;50.60
67738;BME280;54534;43.612;1.572;2022-08-11T09:41:43;99025.63;;;27.41;50.42
67738;BME280;54534;43.612;1.572;2022-08-11T09:44:09;99024.59;;;27.42;50.42
67738;BME280;54534;43.612;1.572;2022-08-11T09:46:54;99022.94;;;27.41;50.40
67738;BME280;54534;43.612;1.572;2022-08-11T09:49:22;99021.72;;;27.44;50.38
67738;BME280;54534;43.612;1.572;2022-08-11T09:51:48;99013.63;;;27.44;50.54
67738;BME280;54534;43.612;1.572;2022-08-11T09:54:15;99019.00;;;27.44;50.45
67738;BME280;54534;43.612;1.572;2022-08-11T09:56:42;99022.53;;;27.45;50.23
67738;BME280;54534;43.612;1.572;2022-08-11T09:59:26;99015.28;;;27.45;50.46
67738;BME280;54534;43.612;1.572;2022-08-11T10:01:56;99010.72;;;27.46;50.28
67738;BME280;54534;43.612;1.572;2022-08-11T10:04:34;99010.50;;;27.47;50.35
67738;BME280;54534;43.612;1.572;2022-08-11T10:07:03;99003.25;;;27.48;50.26
67738;BME280;54534;43.612;1.572;2022-08-11T10:12:09;99009.50;;;27.48;50.15
67738;BME280;54534;43.612;1.572;2022-08-11T10:14:38;99015.75;;;27.49;50.21
67738;BME280;54534;43.612;1.572;2022-08-11T10:17:23;99005.97;;;27.48;50.26
67738;BME280;54534;43.612;1.572;2022-08-11T10:19:49;99017.41;;;27.50;50.11
67738;BME280;54534;43.612;1.572;2022-08-11T10:22:16;99005.78;;;27.49;50.03
67738;BME280;54534;43.612;1.572;2022-08-11T10:25:01;99006.59;;;27.50;50.15
67738;BME280;54534;43.612;1.572;2022-08-11T10:27:46;99003.91;;;27.50;50.11
67738;BME280;54534;43.612;1.572;2022-08-11T10:30:24;99001.19;;;27.50;49.89
67738;BME280;54534;43.612;1.572;2022-08-11T10:33:08;99000.19;;;27.51;49.96
67738;BME280;54534;43.612;1.572;2022-08-11T10:35:52;99000.19;;;27.51;50.01
67738;BME280;54534;43.612;1.572;2022-08-11T10:38:18;98995.78;;;27.50;49.75
67738;BME280;54534;43.612;1.572;2022-08-11T10:40:45;98999.16;;;27.52;50.04
67738;BME280;54534;43.612;1.572;2022-08-11T10:43:31;98999.16;;;27.52;50.06
67738;BME280;54534;43.612;1.572;2022-08-11T10:45:57;98993.56;;;27.53;50.18
67738;BME280;54534;43.612;1.572;2022-08-11T10:48:41;98997.13;;;27.54;50.12
67738;BME280;54534;43.612;1.572;2022-08-11T10:51:06;98993.38;;;27.55;49.99
67738;BME280;54534;43.612;1.572;2022-08-11T10:53:42;98992.56;;;27.54;50.37
67738;BME280;54534;43.612;1.572;2022-08-11T10:56:28;98991.50;;;27.56;50.12
67738;BME280;54534;43.612;1.572;2022-08-11T10:59:13;98991.50;;;27.56;50.06
67738;BME280;54534;43.612;1.572;2022-08-11T11:01:40;98987.59;;;27.58;50.06
67738;BME280;54534;43.612;1.572;2022-08-11T11:04:16;98989.50;;;27.58;50.20
67738;BME280;54534;43.612;1.572;2022-08-11T11:09:19;98982.19;;;27.58;50.06
67738;BME280;54534;43.612;1.572;2022-08-11T11:11:52;98984.72;;;27.60;50.35
67738;BME280;54534;43.612;1.572;2022-08-11T11:14:40;98973.94;;;27.60;50.27
67738;BME280;54534;43.612;1.572;2022-08-11T11:17:31;98963.13;;;27.60;50.10
67738;BME280;54534;43.612;1.572;2022-08-11T11:20:25;98964.78;;;27.61;50.13
67738;BME280;54534;43.612;1.572;2022-08-11T11:22:55;98967.47;;;27.61;50.04
67738;BME280;54534;43.612;1.572;2022-08-11T11:25:24;98964.78;;;27.61;49.99
67738;BME280;54534;43.612;1.572;2022-08-11T11:30:55;98960.03;;;27.63;49.85
67738;BME280;54534;43.612;1.572;2022-08-11T11:35:56;98962.53;;;27.64;49.89
67738;BME280;54534;43.612;1.572;2022-08-11T11:38:27;98966.94;;;27.65;49.93
67738;BME280;54534;43.612;1.572;2022-08-11T11:40:53;98959.84;;;27.64;49.86
67738;BME280;54534;43.612;1.572;2022-08-11T11:43:37;98958.84;;;27.65;50.08
67738;BME280;54534;43.612;1.572;2022-08-11T11:46:04;98958.84;;;27.65;49.97
67738;BME280;54534;43.612;1.572;2022-08-11T11:48:31;98948.66;;;27.68;49.71
67738;BME280;54534;43.612;1.572;2022-08-11T11:50:57;98946.97;;;27.67;49.92
67738;BME280;54534;43.612;1.572;2022-08-11T11:53:24;98949.50;;;27.68;49.78
67738;BME280;54534;43.612;1.572;2022-08-11T11:55:50;98946.59;;;27.70;49.96
67738;BME280;54534;43.612;1.572;2022-08-11T11:58:16;98942.88;;;27.71;49.82
67738;BME280;54534;43.612;1.572;2022-08-11T12:01:00;98935.81;;;27.70;49.86
67738;BME280;54534;43.612;1.572;2022-08-11T12:03:46;98940.19;;;27.71;49.85
67738;BME280;54534;43.612;1.572;2022-08-11T12:06:13;98935.81;;;27.70;49.76
67738;BME280;54534;43.612;1.572;2022-08-11T12:08:39;98926.84;;;27.69;49.75
67738;BME280;54534;43.612;1.572;2022-08-11T12:11:09;98933.75;;;27.72;49.72
67738;BME280;54534;43.612;1.572;2022-08-11T12:13:56;98922.09;;;27.71;49.55
67738;BME280;54534;43.612;1.572;2022-08-11T12:16:22;98915.69;;;27.72;49.43
67738;BME280;54534;43.612;1.572;2022-08-11T12:18:50;98908.41;;;27.73;49.52
67738;BME280;54534;43.612;1.572;2022-08-11T12:21:17;98904.66;;;27.74;49.60
67738;BME280;54534;43.612;1.572;2022-08-11T12:23:45;98912.78;;;27.74;49.74
67738;BME280;54534;43.612;1.572;2022-08-11T12:26:29;98898.44;;;27.73;49.47
67738;BME280;54534;43.612;1.572;2022-08-11T12:29:17;98899.25;;;27.74;49.60
67738;BME280;54534;43.612;1.572;2022-08-11T12:31:52;98903.66;;;27.75;49.41
67738;BME280;54534;43.612;1.572;2022-08-11T12:34:18;98896.38;;;27.75;49.56
67738;BME280;54534;43.612;1.572;2022-08-11T12:36:58;98891.81;;;27.76;49.46
67738;BME280;54534;43.612;1.572;2022-08-11T12:39:26;98890.78;;;27.77;49.44
67738;BME280;54534;43.612;1.572;2022-08-11T12:42:13;98884.53;;;27.76;49.33
67738;BME280;54534;43.612;1.572;2022-08-11T12:45:00;98882.69;;;27.77;49.30
67738;BME280;54534;43.612;1.572;2022-08-11T12:47:48;98886.22;;;27.77;49.42
67738;BME280;54534;43.612;1.572;2022-08-11T12:50:41;98885.38;;;27.77;49.44
67738;BME280;54534;43.612;1.572;2022-08-11T12:53:27;98881.66;;;27.78;49.38
67738;BME280;54534;43.612;1.572;2022-08-11T12:56:02;98883.53;;;27.77;49.29
67738;BME280;54534;43.612;1.572;2022-08-11T12:58:48;98877.91;;;27.79;49.18
67738;BME280;54534;43.612;1.572;2022-08-11T13:01:14;98877.91;;;27.79;49.36
67738;BME280;54534;43.612;1.572;2022-08-11T13:03:59;98872.50;;;27.79;49.33
67738;BME280;54534;43.612;1.572;2022-08-11T13:06:43;98871.53;;;27.80;49.42
67738;BME280;54534;43.612;1.572;2022-08-11T13:09:10;98871.53;;;27.80;49.14
67738;BME280;54534;43.612;1.572;2022-08-11T13:11:37;98862.41;;;27.81;49.15
67738;BME280;54534;43.612;1.572;2022-08-11T13:14:21;98859.69;;;27.81;49.11
67738;BME280;54534;43.612;1.572;2022-08-11T13:16:48;98857.81;;;27.82;49.27
67738;BME280;54534;43.612;1.572;2022-08-11T13:19:32;98854.09;;;27.83;49.03
67738;BME280;54534;43.612;1.572;2022-08-11T13:22:00;98849.53;;;27.83;49.27
67738;BME280;54534;43.612;1.572;2022-08-11T13:24:27;98843.28;;;27.83;49.35
67738;BME280;54534;43.612;1.572;2022-08-11T13:26:53;98837.88;;;27.83;49.40
67738;BME280;54534;43.612;1.572;2022-08-11T13:29:21;98843.09;;;27.84;49.07
67738;BME280;54534;43.612;1.572;2022-08-11T13:31:47;98840.38;;;27.84;49.32
67738;BME280;54534;43.612;1.572;2022-08-11T13:34:14;98839.38;;;27.85;49.13
67738;BME280;54534;43.612;1.572;2022-08-11T13:36:41;98827.53;;;27.86;49.02
67738;BME280;54534;43.612;1.572;2022-08-11T13:39:07;98826.69;;;27.86;49.06
67738;BME280;54534;43.612;1.572;2022-08-11T13:41:33;98827.53;;;27.86;49.35
67738;BME280;54534;43.612;1.572;2022-08-11T13:44:05;98824.84;;;27.86;48.80
67738;BME280;54534;43.612;1.572;2022-08-11T13:46:31;98826.50;;;27.87;49.10
67738;BME280;54534;43.612;1.572;2022-08-11T13:48:58;98819.44;;;27.86;48.98
67738;BME280;54534;43.612;1.572;2022-08-11T13:51:25;98826.50;;;27.87;48.91
67738;BME280;54534;43.612;1.572;2022-08-11T13:54:17;98814.66;;;27.89;48.86
67738;BME280;54534;43.612;1.572;2022-08-11T13:56:46;98817.38;;;27.89;49.07
67738;BME280;54534;43.612;1.572;2022-08-11T13:59:13;98813.81;;;27.88;48.79
67738;BME280;54534;43.612;1.572;2022-08-11T14:01:42;98812.81;;;27.89;48.99
67738;BME280;54534;43.612;1.572;2022-08-11T14:04:16;98810.91;;;27.90;48.76
67738;BME280;54534;43.612;1.572;2022-08-11T14:06:48;98808.22;;;27.90;48.92
67738;BME280;54534;43.612;1.572;2022-08-11T14:09:20;98807.19;;;27.91;48.85
67738;BME280;54534;43.612;1.572;2022-08-11T14:11:47;98802.00;;;27.89;49.22
67738;BME280;54534;43.612;1.572;2022-08-11T14:14:33;98801.78;;;27.91;48.83
67738;BME280;54534;43.612;1.572;2022-08-11T14:17:04;98798.06;;;27.92;48.84
67738;BME280;54534;43.612;1.572;2022-08-11T14:19:37;98800.78;;;27.92;48.91
67738;BME280;54534;43.612;1.572;2022-08-11T14:22:04;98794.53;;;27.91;48.79
67738;BME280;54534;43.612;1.572;2022-08-11T14:24:38;98799.72;;;27.93;48.90
67738;BME280;54534;43.612;1.572;2022-08-11T14:27:09;98799.72;;;27.93;48.69
67738;BME280;54534;43.612;1.572;2022-08-11T14:29:37;98794.31;;;27.93;48.89
67738;BME280;54534;43.612;1.572;2022-08-11T14:32:07;98795.16;;;27.93;48.80
67738;BME280;54534;43.612;1.572;2022-08-11T14:34:34;98801.41;;;27.94;48.66
67738;BME280;54534;43.612;1.572;2022-08-11T14:37:03;98789.75;;;27.93;48.61
67738;BME280;54534;43.612;1.572;2022-08-11T14:39:33;98789.53;;;27.95;48.76
67738;BME280;54534;43.612;1.572;2022-08-11T14:42:04;98790.38;;;27.95;48.73
67738;BME280;54534;43.612;1.572;2022-08-11T14:44:51;98784.16;;;27.95;48.64
67738;BME280;54534;43.612;1.572;2022-08-11T14:47:40;98773.53;;;27.93;48.69
67738;BME280;54534;43.612;1.572;2022-08-11T14:50:11;98777.94;;;27.94;48.68
67738;BME280;54534;43.612;1.572;2022-08-11T14:52:48;98768.78;;;27.95;48.75
67738;BME280;54534;43.612;1.572;2022-08-11T14:55:15;98773.16;;;27.96;48.52
67738;BME280;54534;43.612;1.572;2022-08-11T14:58:00;98766.06;;;27.95;48.63
67738;BME280;54534;43.612;1.572;2022-08-11T15:00:27;98762.34;;;27.96;48.59
67738;BME280;54534;43.612;1.572;2022-08-11T15:02:53;98760.66;;;27.95;48.44
67738;BME280;54534;43.612;1.572;2022-08-11T15:05:56;98749.69;;;27.97;48.52
67738;BME280;54534;43.612;1.572;2022-08-11T15:08:22;98751.53;;;27.96;48.52
67738;BME280;54534;43.612;1.572;2022-08-11T15:11:12;98746.97;;;27.97;48.50
67738;BME280;54534;43.612;1.572;2022-08-11T15:13:59;98740.75;;;27.96;48.63
67738;BME280;54534;43.612;1.572;2022-08-11T15:16:26;98743.22;;;27.98;48.42
67738;BME280;54534;43.612;1.572;2022-08-11T15:19:11;98736.19;;;27.97;48.45
67738;BME280;54534;43.612;1.572;2022-08-11T15:21:37;98741.38;;;27.98;48.42
67738;BME280;54534;43.612;1.572;2022-08-11T15:24:21;98743.22;;;27.98;48.36
67738;BME280;54534;43.612;1.572;2022-08-11T15:26:49;98735.78;;;28.00;48.62
67738;BME280;54534;43.612;1.572;2022-08-11T15:29:34;98728.69;;;27.99;48.42
67738;BME280;54534;43.612;1.572;2022-08-11T15:32:21;98734.09;;;27.99;48.46
67738;BME280;54534;43.612;1.572;2022-08-11T15:35:08;98729.31;;;28.01;48.52
67738;BME280;54534;43.612;1.572;2022-08-11T15:37:55;98727.69;;;28.00;48.25
67738;BME280;54534;43.612;1.572;2022-08-11T15:40:30;98728.31;;;28.02;48.51
67738;BME280;54534;43.612;1.572;2022-08-11T15:43:22;98712.28;;;28.01;48.31
67738;BME280;54534;43.612;1.572;2022-08-11T15:46:10;98719.56;;;28.00;48.40
67738;BME280;54534;43.612;1.572;2022-08-11T15:48:45;98721.22;;;28.01;48.36
67738;BME280;54534;43.612;1.572;2022-08-11T15:51:18;98724.75;;;28.02;48.32
67738;BME280;54534;43.612;1.572;2022-08-11T15:53:51;98718.34;;;28.03;48.19
67738;BME280;54534;43.612;1.572;2022-08-11T15:56:17;98716.66;;;28.02;48.27
67738;BME280;54534;43.612;1.572;2022-08-11T15:58:46;98715.63;;;28.03;48.30
67738;BME280;54534;43.612;1.572;2022-08-11T16:01:32;98714.78;;;28.02;48.44
67738;BME280;54534;43.612;1.572;2022-08-11T16:04:22;98719.16;;;28.03;48.28
67738;BME280;54534;43.612;1.572;2022-08-11T16:09:27;98706.47;;;28.04;48.56
67738;BME280;54534;43.612;1.572;2022-08-11T16:11:57;98714.59;;;28.04;48.38
67738;BME280;54534;43.612;1.572;2022-08-11T16:14:23;98709.19;;;28.04;48.43
67738;BME280;54534;43.612;1.572;2022-08-11T16:17:10;98710.03;;;28.04;48.31
67738;BME280;54534;43.612;1.572;2022-08-11T16:19:38;98705.47;;;28.05;48.19
67738;BME280;54534;43.612;1.572;2022-08-11T16:22:08;98700.06;;;28.05;48.38
67738;BME280;54534;43.612;1.572;2022-08-11T16:24:37;98706.31;;;28.05;48.45
67738;BME280;54534;43.612;1.572;2022-08-11T16:27:05;98691.72;;;28.06;48.44
67738;BME280;54534;43.612;1.572;2022-08-11T16:29:32;98703.38;;;28.07;48.38
67738;BME280;54534;43.612;1.572;2022-08-11T16:32:02;98697.13;;;28.06;48.41
67738;BME280;54534;43.612;1.572;2022-08-11T16:34:51;98694.44;;;28.06;48.41
67738;BME280;54534;43.612;1.572;2022-08-11T16:37:37;98696.13;;;28.07;48.36
67738;BME280;54534;43.612;1.572;2022-08-11T16:40:23;98694.25;;;28.08;48.32
67738;BME280;54534;43.612;1.572;2022-08-11T16:42:51;98700.47;;;28.08;48.21
67738;BME280;54534;43.612;1.572;2022-08-11T16:45:36;98698.81;;;28.07;48.47
67738;BME280;54534;43.612;1.572;2022-08-11T16:48:22;98697.78;;;28.08;48.49
67738;BME280;54534;43.612;1.572;2022-08-11T16:50:49;98698.81;;;28.07;48.50
67738;BME280;54534;43.612;1.572;2022-08-11T16:53:15;98693.19;;;28.09;48.74
67738;BME280;54534;43.612;1.572;2022-08-11T16:55:45;98689.66;;;28.08;48.43
67738;BME280;54534;43.612;1.572;2022-08-11T16:58:12;98694.03;;;28.09;48.42
67738;BME280;54534;43.612;1.572;2022-08-11T17:00:57;98693.19;;;28.09;48.38
67738;BME280;54534;43.612;1.572;2022-08-11T17:03:24;98688.84;;;28.08;48.49
67738;BME280;54534;43.612;1.572;2022-08-11T17:06:09;98692.19;;;28.10;48.55
67738;BME280;54534;43.612;1.572;2022-08-11T17:08:55;98692.19;;;28.10;48.33
67738;BME280;54534;43.612;1.572;2022-08-11T17:11:46;98695.91;;;28.09;48.28
67738;BME280;54534;43.612;1.572;2022-08-11T17:14:40;98701.13;;;28.11;48.47
67738;BME280;54534;43.612;1.572;2022-08-11T17:17:14;98699.44;;;28.09;48.45
67738;BME280;54534;43.612;1.572;2022-08-11T17:19:48;98705.47;;;28.12;48.46
67738;BME280;54534;43.612;1.572;2022-08-11T17:22:15;98703.84;;;28.11;48.72
67738;BME280;54534;43.612;1.572;2022-08-11T17:25:02;98706.53;;;28.11;48.55
67738;BME280;54534;43.612;1.572;2022-08-11T17:27:31;98701.94;;;28.11;48.40
67738;BME280;54534;43.612;1.572;2022-08-11T17:29:58;98705.47;;;28.12;48.47
67738;BME280;54534;43.612;1.572;2022-08-11T17:32:36;98702.59;;;28.13;48.68
67738;BME280;54534;43.612;1.572;2022-08-11T17:35:40;98710.88;;;28.12;48.47
67738;BME280;54534;43.612;1.572;2022-08-11T17:38:15;98708.19;;;28.12;48.38
67738;BME280;54534;43.612;1.572;2022-08-11T17:40:44;98718.81;;;28.13;48.70
67738;BME280;54534;43.612;1.572;2022-08-11T17:43:29;98720.69;;;28.13;48.64
67738;BME280;54534;43.612;1.572;2022-08-11T17:46:15;98717.97;;;28.13;48.47